sensor_id;sensor_type;location;lat;lon;timestamp;temperature;humidity
17807;DHT22;9027;48.938;9.182;2023-02-20T00:00:22;10.00;99.90
17807;DHT22;9027;48.938;9.182;2023-02-20T00:01:55;10.00;99.90
17807;DHT22;9027;48.938;9.182;2023-02-20T00:03:27;9.90;99.90
17807;DHT22;9027;48.938;9.182;2023-02-20T00:04:58;9.90;99.90
17807;DHT22;9027;48.938;9.182;2023-02-20T00:06:30;9.90;99.90
17807;DHT22;9027;48.938;9.182;2023-02-20T00:08:03;9.90;99.90
17807;DHT22;9027;48.938;9.182;2023-02-20T00:09:34;9.90;99.90
17807;DHT22;9027;48.938;9.182;2023-02-20T00:11:06;9.80;99.90
17807;DHT22;9027;48.938;9.182;2023-02-20T00:12:38;9.80;99.90
17807;DHT22;9027;48.938;9.182;2023-02-20T00:14:10;9.80;99.90
17807;DHT22;9027;48.938;9.182;2023-02-20T00:15:42;9.80;99.90
17807;DHT22;9027;48.938;9.182;2023-02-20T00:17:13;9.80;99.90
17807;DHT22;9027;48.938;9.182;2023-02-20T00:18:45;9.80;99.90
17807;DHT22;9027;48.938;9.182;2023-02-20T00:20:18;9.80;99.90
17807;DHT22;9027;48.938;9.182;2023-02-20T00:21:50;9.90;99.90
17807;DHT22;9027;48.938;9.182;2023-02-20T00:23:25;9.80;99.90
17807;DHT22;9027;48.938;9.182;2023-02-20T00:24:57;9.70;99.90
17807;DHT22;9027;48.938;9.182;2023-02-20T00:26:29;9.70;99.90
17807;DHT22;9027;48.938;9.182;2023-02-20T00:28:01;9.60;99.90
17807;DHT22;9027;48.938;9.182;2023-02-20T00:29:31;9.50;99.90
17807;DHT22;9027;48.938;9.182;2023-02-20T00:31:04;9.50;99.90
17807;DHT22;9027;48.938;9.182;2023-02-20T00:32:35;9.50;99.90
17807;DHT22;9027;48.938;9.182;2023-02-20T00:34:07;9.60;99.90
17807;DHT22;9027;48.938;9.182;2023-02-20T00:35:38;9.60;99.90
17807;DHT22;9027;48.938;9.182;2023-02-20T00:37:10;9.50;99.90
17807;DHT22;9027;48.938;9.182;2023-02-20T00:38:43;9.50;99.90
17807;DHT22;9027;48.938;9.182;2023-02-20T00:40:18;9.50;99.90
17807;DHT22;9027;48.938;9.182;2023-02-20T00:41:50;9.50;99.90
17807;DHT22;9027;48.938;9.182;2023-02-20T00:43:23;9.50;99.90
17807;DHT22;9027;48.938;9.182;2023-02-20T00:44:55;9.50;99.90
17807;DHT22;9027;48.938;9.182;2023-02-20T00:46:27;9.50;99.90
17807;DHT22;9027;48.938;9.182;2023-02-20T00:47:59;9.50;99.90
17807;DHT22;9027;48.938;9.182;2023-02-20T00:49:31;9.50;99.90
17807;DHT22;9027;48.938;9.182;2023-02-20T00:51:13;9.60;99.90
17807;DHT22;9027;48.938;9.182;2023-02-20T00:52:45;9.60;99.90
17807;DHT22;9027;48.938;9.182;2023-02-20T00:54:18;9.60;99.90
17807;DHT22;9027;48.938;9.182;2023-02-20T00:55:50;9.50;99.90
17807;DHT22;9027;48.938;9.182;2023-02-20T00:57:22;9.50;99.90
17807;DHT22;9027;48.938;9.182;2023-02-20T00:58:54;9.50;99.90
17807;DHT22;9027;48.938;9.182;2023-02-20T01:00:27;9.50;99.90
17807;DHT22;9027;48.938;9.182;2023-02-20T01:02:00;9.50;99.90
17807;DHT22;9027;48.938;9.182;2023-02-20T01:03:31;9.40;99.90
17807;DHT22;9027;48.938;9.182;2023-02-20T01:05:03;9.40;99.90
17807;DHT22;9027;48.938;9.182;2023-02-20T01:06:35;9.40;99.90
17807;DHT22;9027;48.938;9.182;2023-02-20T01:08:06;9.40;99.90
17807;DHT22;9027;48.938;9.182;2023-02-20T01:09:41;9.40;99.90
17807;DHT22;9027;48.938;9.182;2023-02-20T01:11:13;9.30;99.90
17807;DHT22;9027;48.938;9.182;2023-02-20T01:12:44;9.30;99.90
17807;DHT22;9027;48.938;9.182;2023-02-20T01:14:17;9.30;99.90
17807;DHT22;9027;48.938;9.182;2023-02-20T01:15:49;9.20;99.90
17807;DHT22;9027;48.938;9.182;2023-02-20T01:17:21;9.20;99.90
17807;DHT22;9027;48.938;9.182;2023-02-20T01:18:53;9.30;99.90
17807;DHT22;9027;48.938;9.182;2023-02-20T01:20:25;9.30;99.90
17807;DHT22;9027;48.938;9.182;2023-02-20T01:21:55;9.30;99.90
17807;DHT22;9027;48.938;9.182;2023-02-20T01:23:27;9.30;99.90
17807;DHT22;9027;48.938;9.182;2023-02-20T01:25:01;9.30;99.90
17807;DHT22;9027;48.938;9.182;2023-02-20T01:26:32;9.20;99.90
17807;DHT22;9027;48.938;9.182;2023-02-20T01:28:06;9.30;99.90
17807;DHT22;9027;48.938;9.182;2023-02-20T01:29:39;9.30;99.90
17807;DHT22;9027;48.938;9.182;2023-02-20T01:31:11;9.20;99.90
17807;DHT22;9027;48.938;9.182;2023-02-20T01:32:43;9.20;99.90
17807;DHT22;9027;48.938;9.182;2023-02-20T01:34:14;9.10;99.90
17807;DHT22;9027;48.938;9.182;2023-02-20T01:35:46;9.10;99.90
17807;DHT22;9027;48.938;9.182;2023-02-20T01:37:17;9.10;99.90
17807;DHT22;9027;48.938;9.182;2023-02-20T01:38:50;9.10;99.90
17807;DHT22;9027;48.938;9.182;2023-02-20T01:40:24;9.10;99.90
17807;DHT22;9027;48.938;9.182;2023-02-20T01:41:59;9.10;99.90
17807;DHT22;9027;48.938;9.182;2023-02-20T01:43:31;9.00;99.90
17807;DHT22;9027;48.938;9.182;2023-02-20T01:45:28;9.00;99.90
17807;DHT22;9027;48.938;9.182;2023-02-20T01:47:04;9.00;99.90
17807;DHT22;9027;48.938;9.182;2023-02-20T01:48:36;9.00;99.90
17807;DHT22;9027;48.938;9.182;2023-02-20T01:50:09;8.90;99.90
17807;DHT22;9027;48.938;9.182;2023-02-20T01:51:43;8.90;99.90
17807;DHT22;9027;48.938;9.182;2023-02-20T01:53:19;8.80;99.90
17807;DHT22;9027;48.938;9.182;2023-02-20T01:54:55;8.80;99.90
17807;DHT22;9027;48.938;9.182;2023-02-20T01:56:29;8.80;99.90
17807;DHT22;9027;48.938;9.182;2023-02-20T01:58:04;8.70;99.90
17807;DHT22;9027;48.938;9.182;2023-02-20T01:59:41;8.70;99.90
17807;DHT22;9027;48.938;9.182;2023-02-20T02:01:13;8.70;99.90
17807;DHT22;9027;48.938;9.182;2023-02-20T02:02:48;8.70;99.90
17807;DHT22;9027;48.938;9.182;2023-02-20T02:04:21;8.70;99.90
17807;DHT22;9027;48.938;9.182;2023-02-20T02:05:56;8.60;99.90
17807;DHT22;9027;48.938;9.182;2023-02-20T02:07:29;8.60;99.90
17807;DHT22;9027;48.938;9.182;2023-02-20T02:09:06;8.60;99.90
17807;DHT22;9027;48.938;9.182;2023-02-20T02:10:45;8.60;99.90
17807;DHT22;9027;48.938;9.182;2023-02-20T02:12:20;8.60;99.90
17807;DHT22;9027;48.938;9.182;2023-02-20T02:13:52;8.50;99.90
17807;DHT22;9027;48.938;9.182;2023-02-20T02:15:26;8.50;99.90
17807;DHT22;9027;48.938;9.182;2023-02-20T02:17:25;8.40;99.90
17807;DHT22;9027;48.938;9.182;2023-02-20T02:19:04;8.40;99.90
17807;DHT22;9027;48.938;9.182;2023-02-20T02:23:39;8.40;99.90
17807;DHT22;9027;48.938;9.182;2023-02-20T02:25:30;8.40;99.90
17807;DHT22;9027;48.938;9.182;2023-02-20T02:27:24;8.40;99.90
17807;DHT22;9027;48.938;9.182;2023-02-20T02:29:27;8.40;99.90
17807;DHT22;9027;48.938;9.182;2023-02-20T02:33:40;8.40;99.90
17807;DHT22;9027;48.938;9.182;2023-02-20T02:35:33;8.30;99.90
17807;DHT22;9027;48.938;9.182;2023-02-20T02:37:14;8.20;99.90
17807;DHT22;9027;48.938;9.182;2023-02-20T02:38:55;8.20;99.90
17807;DHT22;9027;48.938;9.182;2023-02-20T02:40:37;8.10;99.90
17807;DHT22;9027;48.938;9.182;2023-02-20T02:42:17;8.10;99.90
17807;DHT22;9027;48.938;9.182;2023-02-20T02:43:55;8.00;99.90
17807;DHT22;9027;48.938;9.182;2023-02-20T02:45:36;8.00;99.90
17807;DHT22;9027;48.938;9.182;2023-02-20T02:47:12;7.90;99.90
17807;DHT22;9027;48.938;9.182;2023-02-20T02:48:49;7.90;99.90
17807;DHT22;9027;48.938;9.182;2023-02-20T02:50:25;7.70;99.90
17807;DHT22;9027;48.938;9.182;2023-02-20T02:51:58;7.70;99.90
17807;DHT22;9027;48.938;9.182;2023-02-20T02:53:32;7.70;99.90
17807;DHT22;9027;48.938;9.182;2023-02-20T02:55:04;7.60;99.90
17807;DHT22;9027;48.938;9.182;2023-02-20T02:56:37;7.60;99.90
17807;DHT22;9027;48.938;9.182;2023-02-20T02:58:10;7.60;99.90
17807;DHT22;9027;48.938;9.182;2023-02-20T02:59:44;7.50;99.90
17807;DHT22;9027;48.938;9.182;2023-02-20T03:01:19;7.50;99.90
17807;DHT22;9027;48.938;9.182;2023-02-20T03:02:58;7.50;99.90
17807;DHT22;9027;48.938;9.182;2023-02-20T03:04:35;7.60;99.90
17807;DHT22;9027;48.938;9.182;2023-02-20T03:06:12;7.50;99.90
17807;DHT22;9027;48.938;9.182;2023-02-20T03:07:52;7.60;99.90
17807;DHT22;9027;48.938;9.182;2023-02-20T03:09:28;7.50;99.90
17807;DHT22;9027;48.938;9.182;2023-02-20T03:11:05;7.50;99.90
17807;DHT22;9027;48.938;9.182;2023-02-20T03:12:40;7.50;99.90
17807;DHT22;9027;48.938;9.182;2023-02-20T03:14:15;7.50;99.90
17807;DHT22;9027;48.938;9.182;2023-02-20T03:16:06;7.50;99.90
17807;DHT22;9027;48.938;9.182;2023-02-20T03:17:41;7.50;99.90
17807;DHT22;9027;48.938;9.182;2023-02-20T03:19:17;7.50;99.90
17807;DHT22;9027;48.938;9.182;2023-02-20T03:20:55;7.50;99.90
17807;DHT22;9027;48.938;9.182;2023-02-20T03:22:32;7.50;99.90
17807;DHT22;9027;48.938;9.182;2023-02-20T03:24:06;7.50;99.90
17807;DHT22;9027;48.938;9.182;2023-02-20T03:25:46;7.50;99.90
17807;DHT22;9027;48.938;9.182;2023-02-20T03:27:20;7.40;99.90
17807;DHT22;9027;48.938;9.182;2023-02-20T03:28:55;7.50;99.90
17807;DHT22;9027;48.938;9.182;2023-02-20T03:30:32;7.50;99.90
17807;DHT22;9027;48.938;9.182;2023-02-20T03:32:08;7.40;99.90
17807;DHT22;9027;48.938;9.182;2023-02-20T03:34:03;7.50;99.90
17807;DHT22;9027;48.938;9.182;2023-02-20T03:35:55;7.50;99.90
17807;DHT22;9027;48.938;9.182;2023-02-20T03:37:47;7.60;99.90
17807;DHT22;9027;48.938;9.182;2023-02-20T03:39:41;7.60;99.90
17807;DHT22;9027;48.938;9.182;2023-02-20T03:41:35;7.60;99.90
17807;DHT22;9027;48.938;9.182;2023-02-20T03:43:28;7.70;99.90
17807;DHT22;9027;48.938;9.182;2023-02-20T03:45:05;7.60;99.90
17807;DHT22;9027;48.938;9.182;2023-02-20T03:46:38;7.60;99.90
17807;DHT22;9027;48.938;9.182;2023-02-20T03:48:14;7.60;99.90
17807;DHT22;9027;48.938;9.182;2023-02-20T03:49:48;7.70;99.90
17807;DHT22;9027;48.938;9.182;2023-02-20T03:51:28;7.70;99.90
17807;DHT22;9027;48.938;9.182;2023-02-20T03:53:05;7.60;99.90
17807;DHT22;9027;48.938;9.182;2023-02-20T03:54:37;7.60;99.90
17807;DHT22;9027;48.938;9.182;2023-02-20T03:56:12;7.70;99.90
17807;DHT22;9027;48.938;9.182;2023-02-20T03:57:49;7.70;99.90
17807;DHT22;9027;48.938;9.182;2023-02-20T03:59:24;7.60;99.90
17807;DHT22;9027;48.938;9.182;2023-02-20T04:00:59;7.70;99.90
17807;DHT22;9027;48.938;9.182;2023-02-20T04:02:37;7.70;99.90
17807;DHT22;9027;48.938;9.182;2023-02-20T04:04:15;7.70;99.90
17807;DHT22;9027;48.938;9.182;2023-02-20T04:05:51;7.70;99.90
17807;DHT22;9027;48.938;9.182;2023-02-20T04:07:33;7.70;99.90
17807;DHT22;9027;48.938;9.182;2023-02-20T04:09:08;7.80;99.90
17807;DHT22;9027;48.938;9.182;2023-02-20T04:10:46;7.80;99.90
17807;DHT22;9027;48.938;9.182;2023-02-20T04:12:22;7.80;99.90
17807;DHT22;9027;48.938;9.182;2023-02-20T04:13:57;7.80;99.90
17807;DHT22;9027;48.938;9.182;2023-02-20T04:15:30;7.80;99.90
17807;DHT22;9027;48.938;9.182;2023-02-20T04:17:08;7.90;99.90
17807;DHT22;9027;48.938;9.182;2023-02-20T04:18:43;7.90;99.90
17807;DHT22;9027;48.938;9.182;2023-02-20T04:20:16;7.90;99.90
17807;DHT22;9027;48.938;9.182;2023-02-20T04:21:59;8.00;99.90
17807;DHT22;9027;48.938;9.182;2023-02-20T04:23:36;8.00;99.90
17807;DHT22;9027;48.938;9.182;2023-02-20T04:25:13;7.90;99.90
17807;DHT22;9027;48.938;9.182;2023-02-20T04:26:49;8.00;99.90
17807;DHT22;9027;48.938;9.182;2023-02-20T04:28:22;8.00;99.90
17807;DHT22;9027;48.938;9.182;2023-02-20T04:30:01;8.00;99.90
17807;DHT22;9027;48.938;9.182;2023-02-20T04:31:34;7.90;99.90
17807;DHT22;9027;48.938;9.182;2023-02-20T04:33:08;7.90;99.90
17807;DHT22;9027;48.938;9.182;2023-02-20T04:34:40;8.00;99.90
17807;DHT22;9027;48.938;9.182;2023-02-20T04:36:14;8.00;99.90
17807;DHT22;9027;48.938;9.182;2023-02-20T04:37:46;8.00;99.90
17807;DHT22;9027;48.938;9.182;2023-02-20T04:39:18;8.00;99.90
17807;DHT22;9027;48.938;9.182;2023-02-20T04:40:51;8.00;99.90
17807;DHT22;9027;48.938;9.182;2023-02-20T04:42:25;8.00;99.90
17807;DHT22;9027;48.938;9.182;2023-02-20T04:43:58;8.00;99.90
17807;DHT22;9027;48.938;9.182;2023-02-20T04:45:45;8.00;99.90
17807;DHT22;9027;48.938;9.182;2023-02-20T04:47:17;8.10;99.90
17807;DHT22;9027;48.938;9.182;2023-02-20T04:48:48;8.10;99.90
17807;DHT22;9027;48.938;9.182;2023-02-20T04:50:22;8.10;99.90
17807;DHT22;9027;48.938;9.182;2023-02-20T04:51:55;8.20;99.90
17807;DHT22;9027;48.938;9.182;2023-02-20T04:53:26;8.20;99.90
17807;DHT22;9027;48.938;9.182;2023-02-20T04:54:58;8.20;99.90
17807;DHT22;9027;48.938;9.182;2023-02-20T04:56:29;8.20;99.90
17807;DHT22;9027;48.938;9.182;2023-02-20T04:58:01;8.20;99.90
17807;DHT22;9027;48.938;9.182;2023-02-20T04:59:41;8.20;99.90
17807;DHT22;9027;48.938;9.182;2023-02-20T05:01:16;8.10;99.90
17807;DHT22;9027;48.938;9.182;2023-02-20T05:02:48;8.10;99.90
17807;DHT22;9027;48.938;9.182;2023-02-20T05:04:20;8.10;99.90
17807;DHT22;9027;48.938;9.182;2023-02-20T05:05:52;8.10;99.90
17807;DHT22;9027;48.938;9.182;2023-02-20T05:07:24;8.10;99.90
17807;DHT22;9027;48.938;9.182;2023-02-20T05:08:56;8.10;99.90
17807;DHT22;9027;48.938;9.182;2023-02-20T05:10:30;8.10;99.90
17807;DHT22;9027;48.938;9.182;2023-02-20T05:12:03;8.00;99.90
17807;DHT22;9027;48.938;9.182;2023-02-20T05:13:35;8.00;99.90
17807;DHT22;9027;48.938;9.182;2023-02-20T05:15:06;8.00;99.90
17807;DHT22;9027;48.938;9.182;2023-02-20T05:16:40;8.00;99.90
17807;DHT22;9027;48.938;9.182;2023-02-20T05:18:12;7.90;99.90
17807;DHT22;9027;48.938;9.182;2023-02-20T05:19:44;7.90;99.90
17807;DHT22;9027;48.938;9.182;2023-02-20T05:21:16;7.80;99.90
17807;DHT22;9027;48.938;9.182;2023-02-20T05:23:05;7.80;99.90
17807;DHT22;9027;48.938;9.182;2023-02-20T05:24:36;7.70;99.90
17807;DHT22;9027;48.938;9.182;2023-02-20T05:26:08;7.60;99.90
17807;DHT22;9027;48.938;9.182;2023-02-20T05:27:41;7.60;99.90
17807;DHT22;9027;48.938;9.182;2023-02-20T05:29:13;7.60;99.90
17807;DHT22;9027;48.938;9.182;2023-02-20T05:30:44;7.50;99.90
17807;DHT22;9027;48.938;9.182;2023-02-20T05:32:19;7.50;99.90
17807;DHT22;9027;48.938;9.182;2023-02-20T05:33:51;7.50;99.90
17807;DHT22;9027;48.938;9.182;2023-02-20T05:35:23;7.50;99.90
17807;DHT22;9027;48.938;9.182;2023-02-20T05:36:55;7.40;99.90
17807;DHT22;9027;48.938;9.182;2023-02-20T05:38:27;7.40;99.90
17807;DHT22;9027;48.938;9.182;2023-02-20T05:39:59;7.40;99.90
17807;DHT22;9027;48.938;9.182;2023-02-20T05:41:31;7.40;99.90
17807;DHT22;9027;48.938;9.182;2023-02-20T05:43:03;7.30;99.90
17807;DHT22;9027;48.938;9.182;2023-02-20T05:44:35;7.30;99.90
17807;DHT22;9027;48.938;9.182;2023-02-20T05:46:07;7.30;99.90
17807;DHT22;9027;48.938;9.182;2023-02-20T05:47:40;7.20;99.90
17807;DHT22;9027;48.938;9.182;2023-02-20T05:49:12;7.20;99.90
17807;DHT22;9027;48.938;9.182;2023-02-20T05:50:44;7.10;99.90
17807;DHT22;9027;48.938;9.182;2023-02-20T05:52:21;7.10;99.90
17807;DHT22;9027;48.938;9.182;2023-02-20T05:53:53;7.00;99.90
17807;DHT22;9027;48.938;9.182;2023-02-20T05:55:24;7.10;99.90
17807;DHT22;9027;48.938;9.182;2023-02-20T05:56:56;7.00;99.90
17807;DHT22;9027;48.938;9.182;2023-02-20T05:58:26;7.00;99.90
17807;DHT22;9027;48.938;9.182;2023-02-20T05:59:59;7.00;99.90
17807;DHT22;9027;48.938;9.182;2023-02-20T06:01:31;7.00;99.90
17807;DHT22;9027;48.938;9.182;2023-02-20T06:03:06;7.00;99.90
17807;DHT22;9027;48.938;9.182;2023-02-20T06:04:39;6.90;99.90
17807;DHT22;9027;48.938;9.182;2023-02-20T06:06:11;6.90;99.90
17807;DHT22;9027;48.938;9.182;2023-02-20T06:07:44;6.80;99.90
17807;DHT22;9027;48.938;9.182;2023-02-20T06:09:16;6.70;99.90
17807;DHT22;9027;48.938;9.182;2023-02-20T06:10:48;6.50;99.90
17807;DHT22;9027;48.938;9.182;2023-02-20T06:12:20;6.30;99.90
17807;DHT22;9027;48.938;9.182;2023-02-20T06:13:52;6.20;99.90
17807;DHT22;9027;48.938;9.182;2023-02-20T06:15:24;6.20;99.90
17807;DHT22;9027;48.938;9.182;2023-02-20T06:16:56;6.30;99.90
17807;DHT22;9027;48.938;9.182;2023-02-20T06:18:29;6.30;99.90
17807;DHT22;9027;48.938;9.182;2023-02-20T06:20:01;6.50;99.90
17807;DHT22;9027;48.938;9.182;2023-02-20T06:21:33;6.50;99.90
17807;DHT22;9027;48.938;9.182;2023-02-20T06:23:05;6.60;99.90
17807;DHT22;9027;48.938;9.182;2023-02-20T06:24:37;6.60;99.90
17807;DHT22;9027;48.938;9.182;2023-02-20T06:26:09;6.60;99.90
17807;DHT22;9027;48.938;9.182;2023-02-20T06:27:41;6.60;99.90
17807;DHT22;9027;48.938;9.182;2023-02-20T06:29:13;6.50;99.90
17807;DHT22;9027;48.938;9.182;2023-02-20T06:30:45;6.50;99.90
17807;DHT22;9027;48.938;9.182;2023-02-20T06:32:17;6.50;99.90
17807;DHT22;9027;48.938;9.182;2023-02-20T06:33:50;6.60;99.90
17807;DHT22;9027;48.938;9.182;2023-02-20T06:35:22;6.60;99.90
17807;DHT22;9027;48.938;9.182;2023-02-20T06:36:54;6.60;99.90
17807;DHT22;9027;48.938;9.182;2023-02-20T06:38:26;6.70;99.90
17807;DHT22;9027;48.938;9.182;2023-02-20T06:39:58;6.60;99.90
17807;DHT22;9027;48.938;9.182;2023-02-20T06:41:30;6.60;99.90
17807;DHT22;9027;48.938;9.182;2023-02-20T06:43:02;6.70;99.90
17807;DHT22;9027;48.938;9.182;2023-02-20T06:44:34;6.70;99.90
17807;DHT22;9027;48.938;9.182;2023-02-20T06:46:06;6.80;99.90
17807;DHT22;9027;48.938;9.182;2023-02-20T06:47:37;6.80;99.90
17807;DHT22;9027;48.938;9.182;2023-02-20T06:49:10;6.80;99.90
17807;DHT22;9027;48.938;9.182;2023-02-20T06:50:42;6.90;99.90
17807;DHT22;9027;48.938;9.182;2023-02-20T06:52:14;6.80;99.90
17807;DHT22;9027;48.938;9.182;2023-02-20T06:53:46;6.80;99.90
17807;DHT22;9027;48.938;9.182;2023-02-20T06:55:19;6.80;99.90
17807;DHT22;9027;48.938;9.182;2023-02-20T06:56:51;6.90;99.90
17807;DHT22;9027;48.938;9.182;2023-02-20T06:58:23;6.80;99.90
17807;DHT22;9027;48.938;9.182;2023-02-20T06:59:54;6.90;99.90
17807;DHT22;9027;48.938;9.182;2023-02-20T07:01:28;7.00;99.90
17807;DHT22;9027;48.938;9.182;2023-02-20T07:03:00;7.00;99.90
17807;DHT22;9027;48.938;9.182;2023-02-20T07:04:34;7.10;99.90
17807;DHT22;9027;48.938;9.182;2023-02-20T07:06:06;7.40;99.90
17807;DHT22;9027;48.938;9.182;2023-02-20T07:07:38;7.70;99.90
17807;DHT22;9027;48.938;9.182;2023-02-20T07:09:09;8.10;99.90
17807;DHT22;9027;48.938;9.182;2023-02-20T07:10:41;8.50;99.90
17807;DHT22;9027;48.938;9.182;2023-02-20T07:12:13;8.90;99.90
17807;DHT22;9027;48.938;9.182;2023-02-20T07:13:45;9.40;99.90
17807;DHT22;9027;48.938;9.182;2023-02-20T07:15:17;9.90;99.90
17807;DHT22;9027;48.938;9.182;2023-02-20T07:16:49;10.40;99.90
17807;DHT22;9027;48.938;9.182;2023-02-20T07:18:21;11.00;99.90
17807;DHT22;9027;48.938;9.182;2023-02-20T07:19:55;11.50;99.90
17807;DHT22;9027;48.938;9.182;2023-02-20T07:21:26;12.10;99.90
17807;DHT22;9027;48.938;9.182;2023-02-20T07:22:58;12.70;99.90
17807;DHT22;9027;48.938;9.182;2023-02-20T07:24:30;13.30;99.90
17807;DHT22;9027;48.938;9.182;2023-02-20T07:26:02;13.80;99.90
17807;DHT22;9027;48.938;9.182;2023-02-20T07:27:34;14.30;99.90
17807;DHT22;9027;48.938;9.182;2023-02-20T07:29:06;14.90;99.90
17807;DHT22;9027;48.938;9.182;2023-02-20T07:30:38;15.30;99.90
17807;DHT22;9027;48.938;9.182;2023-02-20T07:32:10;15.70;99.90
17807;DHT22;9027;48.938;9.182;2023-02-20T07:33:42;16.20;99.90
17807;DHT22;9027;48.938;9.182;2023-02-20T07:35:15;16.60;99.90
17807;DHT22;9027;48.938;9.182;2023-02-20T07:36:47;17.10;99.90
17807;DHT22;9027;48.938;9.182;2023-02-20T07:38:19;17.40;99.90
17807;DHT22;9027;48.938;9.182;2023-02-20T07:39:51;17.80;99.90
17807;DHT22;9027;48.938;9.182;2023-02-20T07:41:24;18.10;99.90
17807;DHT22;9027;48.938;9.182;2023-02-20T07:42:56;18.40;99.90
17807;DHT22;9027;48.938;9.182;2023-02-20T07:44:28;18.80;99.90
17807;DHT22;9027;48.938;9.182;2023-02-20T07:46:00;18.40;99.90
17807;DHT22;9027;48.938;9.182;2023-02-20T07:47:32;18.70;99.90
17807;DHT22;9027;48.938;9.182;2023-02-20T07:49:04;19.00;99.90
17807;DHT22;9027;48.938;9.182;2023-02-20T07:50:37;19.20;99.90
17807;DHT22;9027;48.938;9.182;2023-02-20T07:52:09;19.50;99.90
17807;DHT22;9027;48.938;9.182;2023-02-20T07:53:46;19.60;99.30
17807;DHT22;9027;48.938;9.182;2023-02-20T07:55:19;19.80;98.80
17807;DHT22;9027;48.938;9.182;2023-02-20T07:56:51;20.00;98.20
17807;DHT22;9027;48.938;9.182;2023-02-20T07:58:23;20.40;97.90
17807;DHT22;9027;48.938;9.182;2023-02-20T07:59:55;20.00;96.40
17807;DHT22;9027;48.938;9.182;2023-02-20T08:01:27;20.20;96.70
17807;DHT22;9027;48.938;9.182;2023-02-20T08:02:59;20.50;95.30
17807;DHT22;9027;48.938;9.182;2023-02-20T08:04:31;20.50;95.20
17807;DHT22;9027;48.938;9.182;2023-02-20T08:06:05;20.30;95.40
17807;DHT22;9027;48.938;9.182;2023-02-20T08:07:37;20.30;95.10
17807;DHT22;9027;48.938;9.182;2023-02-20T08:09:09;20.10;95.20
17807;DHT22;9027;48.938;9.182;2023-02-20T08:10:41;20.50;94.90
17807;DHT22;9027;48.938;9.182;2023-02-20T08:12:13;20.70;93.90
17807;DHT22;9027;48.938;9.182;2023-02-20T08:13:45;21.10;93.10
17807;DHT22;9027;48.938;9.182;2023-02-20T08:15:18;20.20;93.20
17807;DHT22;9027;48.938;9.182;2023-02-20T08:16:50;19.70;94.70
17807;DHT22;9027;48.938;9.182;2023-02-20T08:18:22;20.00;94.80
17807;DHT22;9027;48.938;9.182;2023-02-20T08:19:53;20.40;94.00
17807;DHT22;9027;48.938;9.182;2023-02-20T08:21:26;20.30;93.80
17807;DHT22;9027;48.938;9.182;2023-02-20T08:22:58;20.40;93.70
17807;DHT22;9027;48.938;9.182;2023-02-20T08:24:30;20.20;93.40
17807;DHT22;9027;48.938;9.182;2023-02-20T08:26:03;20.50;93.60
17807;DHT22;9027;48.938;9.182;2023-02-20T08:27:35;20.90;93.00
17807;DHT22;9027;48.938;9.182;2023-02-20T08:29:07;21.10;92.00
17807;DHT22;9027;48.938;9.182;2023-02-20T08:30:39;20.60;92.00
17807;DHT22;9027;48.938;9.182;2023-02-20T08:32:11;20.00;93.50
17807;DHT22;9027;48.938;9.182;2023-02-20T08:33:43;19.70;93.40
17807;DHT22;9027;48.938;9.182;2023-02-20T08:35:15;19.90;93.60
17807;DHT22;9027;48.938;9.182;2023-02-20T08:36:48;20.20;94.00
17807;DHT22;9027;48.938;9.182;2023-02-20T08:38:26;21.30;92.50
17807;DHT22;9027;48.938;9.182;2023-02-20T08:39:59;20.80;91.60
17807;DHT22;9027;48.938;9.182;2023-02-20T08:41:41;21.10;91.60
17807;DHT22;9027;48.938;9.182;2023-02-20T08:43:13;20.90;91.00
17807;DHT22;9027;48.938;9.182;2023-02-20T08:44:45;20.50;92.30
17807;DHT22;9027;48.938;9.182;2023-02-20T08:46:17;20.80;92.70
17807;DHT22;9027;48.938;9.182;2023-02-20T08:47:50;20.60;92.00
17807;DHT22;9027;48.938;9.182;2023-02-20T08:49:22;19.80;92.60
17807;DHT22;9027;48.938;9.182;2023-02-20T08:50:55;19.10;93.80
17807;DHT22;9027;48.938;9.182;2023-02-20T08:52:28;19.50;94.80
17807;DHT22;9027;48.938;9.182;2023-02-20T08:54:00;19.80;93.30
17807;DHT22;9027;48.938;9.182;2023-02-20T08:55:34;19.50;94.30
17807;DHT22;9027;48.938;9.182;2023-02-20T08:57:05;20.00;93.90
17807;DHT22;9027;48.938;9.182;2023-02-20T08:58:38;20.40;93.40
17807;DHT22;9027;48.938;9.182;2023-02-20T09:00:12;20.60;92.40
17807;DHT22;9027;48.938;9.182;2023-02-20T09:01:44;20.70;92.70
17807;DHT22;9027;48.938;9.182;2023-02-20T09:03:16;20.70;91.90
17807;DHT22;9027;48.938;9.182;2023-02-20T09:04:48;20.30;92.10
17807;DHT22;9027;48.938;9.182;2023-02-20T09:06:20;20.10;92.90
17807;DHT22;9027;48.938;9.182;2023-02-20T09:07:55;20.30;93.00
17807;DHT22;9027;48.938;9.182;2023-02-20T09:09:27;20.30;92.40
17807;DHT22;9027;48.938;9.182;2023-02-20T09:11:00;20.20;93.60
17807;DHT22;9027;48.938;9.182;2023-02-20T09:12:32;19.40;92.70
17807;DHT22;9027;48.938;9.182;2023-02-20T09:14:04;18.80;95.10
17807;DHT22;9027;48.938;9.182;2023-02-20T09:15:36;18.80;94.60
17807;DHT22;9027;48.938;9.182;2023-02-20T09:17:09;18.80;95.00
17807;DHT22;9027;48.938;9.182;2023-02-20T09:18:42;18.50;94.70
17807;DHT22;9027;48.938;9.182;2023-02-20T09:20:15;18.30;95.50
17807;DHT22;9027;48.938;9.182;2023-02-20T09:21:47;18.30;95.60
17807;DHT22;9027;48.938;9.182;2023-02-20T09:23:20;18.20;95.60
17807;DHT22;9027;48.938;9.182;2023-02-20T09:24:55;18.20;95.60
17807;DHT22;9027;48.938;9.182;2023-02-20T09:26:27;17.90;95.80
17807;DHT22;9027;48.938;9.182;2023-02-20T09:27:59;17.80;96.50
17807;DHT22;9027;48.938;9.182;2023-02-20T09:29:31;17.60;96.70
17807;DHT22;9027;48.938;9.182;2023-02-20T09:31:03;17.70;96.40
17807;DHT22;9027;48.938;9.182;2023-02-20T09:32:35;18.00;97.30
17807;DHT22;9027;48.938;9.182;2023-02-20T09:34:06;18.10;96.70
17807;DHT22;9027;48.938;9.182;2023-02-20T09:35:38;17.90;96.30
17807;DHT22;9027;48.938;9.182;2023-02-20T09:37:10;18.00;96.80
17807;DHT22;9027;48.938;9.182;2023-02-20T09:38:44;18.10;96.80
17807;DHT22;9027;48.938;9.182;2023-02-20T09:40:16;18.20;96.20
17807;DHT22;9027;48.938;9.182;2023-02-20T09:42:00;18.10;97.00
17807;DHT22;9027;48.938;9.182;2023-02-20T09:43:43;18.00;96.90
17807;DHT22;9027;48.938;9.182;2023-02-20T09:45:20;17.90;97.20
17807;DHT22;9027;48.938;9.182;2023-02-20T09:46:55;17.60;97.80
17807;DHT22;9027;48.938;9.182;2023-02-20T09:48:44;17.30;98.00
17807;DHT22;9027;48.938;9.182;2023-02-20T09:50:24;16.90;99.30
17807;DHT22;9027;48.938;9.182;2023-02-20T09:52:04;16.50;98.90
17807;DHT22;9027;48.938;9.182;2023-02-20T09:53:38;16.50;99.70
17807;DHT22;9027;48.938;9.182;2023-02-20T09:55:19;16.50;99.90
17807;DHT22;9027;48.938;9.182;2023-02-20T09:56:54;16.40;99.90
17807;DHT22;9027;48.938;9.182;2023-02-20T09:58:36;16.50;99.90
17807;DHT22;9027;48.938;9.182;2023-02-20T10:00:15;16.60;99.90
17807;DHT22;9027;48.938;9.182;2023-02-20T10:01:53;16.70;99.90
17807;DHT22;9027;48.938;9.182;2023-02-20T10:03:29;16.70;99.60
17807;DHT22;9027;48.938;9.182;2023-02-20T10:05:10;16.90;99.90
17807;DHT22;9027;48.938;9.182;2023-02-20T10:06:45;17.00;99.90
17807;DHT22;9027;48.938;9.182;2023-02-20T10:08:19;17.00;99.90
17807;DHT22;9027;48.938;9.182;2023-02-20T10:09:53;17.00;99.90
17807;DHT22;9027;48.938;9.182;2023-02-20T10:11:44;17.10;99.90
17807;DHT22;9027;48.938;9.182;2023-02-20T10:13:44;17.40;99.90
17807;DHT22;9027;48.938;9.182;2023-02-20T10:15:25;17.60;98.80
17807;DHT22;9027;48.938;9.182;2023-02-20T10:17:09;17.20;99.10
17807;DHT22;9027;48.938;9.182;2023-02-20T10:18:46;17.20;99.50